Ashland, Nebraska
Current Conditions -  °F | °C
As of 4:35 AM on Friday 24 Oct 2014 (Local Time) from KMLE Reporting Station
Haze Haze  
Wind Chill: 55°   Ceiling: Unl
Heat Index: 55°   Visibility: 5mi
Dew Point: 53°   Wind: 3mph
Humidity: 96%   Direction: 130°SE
Pressure: 29.96"   Gusts: NA
Location:  41.04°N, 96.37°W
Report Text: KMLE 240935Z AUTO 13003KT 5SM BR CLR 13/12 A2996 RMK AO2 T01260119
Loading
Personal Weather Stations






























Interactive Weather Map
Tropical Storm Tracking
New forecast layout! Learn more

10-Day Weather Forecast

Advertisements
Track Severe Weather on mobile